Observation data for Olton on 01/21/2019      Previous  Date  Next       Current Mesonet Observations  Soil Data  Daily Summary Page  Observations in Plain Language
KONS 210600Z 21010KT 03/M06 A2998 RMK A01 T00311061  RH  051%=      5-min Rain = 0
KONS 210605Z 21011KT 03/M06 A2998 RMK A01 T00331061  RH  051%=      5-min Rain = 0
KONS 210610Z 21011KT 04/M06 A2998 RMK A01 T00351061  RH  050%=      5-min Rain = 0
KONS 210615Z 21012KT 04/M06 A2997 RMK A01 T00371062  RH  049%=      5-min Rain = 0
KONS 210620Z 21012KT 04/M06 A2997 RMK A01 T00401061  RH  048%=      5-min Rain = 0
KONS 210625Z 21013KT 04/M06 A2997 RMK A01 T00401060  RH  048%=      5-min Rain = 0
KONS 210630Z 21012KT 04/M06 A2997 RMK A01 T00391060  RH  049%=      5-min Rain = 0
KONS 210635Z 21012KT 04/M06 A2998 RMK A01 T00351060  RH  050%=      5-min Rain = 0
KONS 210640Z 21012KT 03/M06 A2998 RMK A01 T00321059  RH  052%=      5-min Rain = 0
KONS 210645Z 21011KT 03/M06 A2998 RMK A01 T00301058  RH  053%=      5-min Rain = 0
KONS 210650Z 21011KT 03/M06 A2997 RMK A01 T00281058  RH  054%=      5-min Rain = 0
KONS 210655Z 21010KT 03/M06 A2997 RMK A01 T00261057  RH  055%=      5-min Rain = 0
KONS 210700Z 21011KT 02/M06 A2997 RMK A01 T00241056  RH  056%=      5-min Rain = 0
KONS 210705Z 21011KT 03/M05 A2996 RMK A01 T00251054  RH  056%=      5-min Rain = 0
KONS 210710Z 21011KT 02/M05 A2996 RMK A01 T00241054  RH  057%=      5-min Rain = 0
KONS 210715Z 21010KT 02/M05 A2996 RMK A01 T00221053  RH  058%=      5-min Rain = 0
KONS 210720Z 20010KT 02/M05 A2996 RMK A01 T00221051  RH  059%=      5-min Rain = 0
KONS 210725Z 20010KT 02/M05 A2995 RMK A01 T00201051  RH  060%=      5-min Rain = 0
KONS 210730Z 20010KT 02/M05 A2995 RMK A01 T00181050  RH  061%=      5-min Rain = 0
KONS 210735Z 21010KT 02/M05 A2995 RMK A01 T00161049  RH  062%=      5-min Rain = 0
KONS 210740Z 21010KT 02/M05 A2995 RMK A01 T00181048  RH  062%=      5-min Rain = 0
KONS 210745Z 21011KT 02/M05 A2994 RMK A01 T00191047  RH  062%=      5-min Rain = 0
KONS 210750Z 21010KT 02/M05 A2994 RMK A01 T00191046  RH  063%=      5-min Rain = 0
KONS 210755Z 21010KT 02/M04 A2994 RMK A01 T00191044  RH  064%=      5-min Rain = 0
KONS 210800Z 21010KT 02/M04 A2993 RMK A01 T00201042  RH  064%=      5-min Rain = 0
KONS 210805Z 21010KT 02/M04 A2993 RMK A01 T00211042  RH  064%=      5-min Rain = 0
KONS 210810Z 21010KT 02/M04 A2993 RMK A01 T00211042  RH  064%=      5-min Rain = 0
KONS 210815Z 21010KT 02/M04 A2993 RMK A01 T00201043  RH  064%=      5-min Rain = 0
KONS 210820Z 20010KT 02/M04 A2992 RMK A01 T00191043  RH  064%=      5-min Rain = 0
KONS 210825Z 19010KT 02/M04 A2992 RMK A01 T00171042  RH  065%=      5-min Rain = 0
KONS 210830Z 20009KT 02/M04 A2992 RMK A01 T00151042  RH  066%=      5-min Rain = 0
KONS 210835Z 20009KT 02/M04 A2992 RMK A01 T00151043  RH  066%=      5-min Rain = 0
KONS 210840Z 20008KT 02/M04 A2992 RMK A01 T00161043  RH  066%=      5-min Rain = 0
KONS 210845Z 20009KT 02/M04 A2992 RMK A01 T00161043  RH  066%=      5-min Rain = 0
KONS 210850Z 20009KT 02/M04 A2992 RMK A01 T00151043  RH  066%=      5-min Rain = 0
KONS 210855Z 20009KT 01/M04 A2992 RMK A01 T00111044  RH  067%=      5-min Rain = 0
KONS 210900Z 21008KT 01/M05 A2992 RMK A01 T00081045  RH  068%=      5-min Rain = 0
KONS 210905Z 21008KT 01/M05 A2991 RMK A01 T00061045  RH  069%=      5-min Rain = 0
KONS 210910Z 21009KT 01/M05 A2991 RMK A01 T00071045  RH  069%=      5-min Rain = 0
KONS 210915Z 21009KT 01/M04 A2991 RMK A01 T00091044  RH  068%=      5-min Rain = 0
KONS 210920Z 22010KT 01/M04 A2991 RMK A01 T00121044  RH  067%=      5-min Rain = 0
KONS 210925Z 23009KT 01/M04 A2992 RMK A01 T00131044  RH  066%=      5-min Rain = 0
KONS 210930Z 22009KT 01/M05 A2991 RMK A01 T00091046  RH  068%=      5-min Rain = 0
KONS 210935Z 23008KT 01/M05 A2991 RMK A01 T00061046  RH  069%=      5-min Rain = 0
KONS 210940Z 23009KT 00/M05 A2991 RMK A01 T00031047  RH  070%=      5-min Rain = 0
KONS 210945Z 22009KT 00/M05 A2991 RMK A01 T00011048  RH  071%=      5-min Rain = 0
KONS 210950Z 23009KT M00/M05 A2991 RMK A01 T10011048  RH  071%=      5-min Rain = 0
KONS 210955Z 23007KT M00/M05 A2991 RMK A01 T10041051  RH  071%=      5-min Rain = 0
KONS 211000Z 23008KT M01/M05 A2991 RMK A01 T10091053  RH  073%=      5-min Rain = 0
KONS 211005Z 23008KT M01/M05 A2991 RMK A01 T10121053  RH  074%=      5-min Rain = 0
KONS 211010Z 23008KT M01/M05 A2991 RMK A01 T10111051  RH  075%=      5-min Rain = 0
KONS 211015Z 22008KT M01/M05 A299 RMK A01 T10081050  RH  074%=      5-min Rain = 0
KONS 211020Z 22008KT M01/M05 A299 RMK A01 T10081050  RH  074%=      5-min Rain = 0
KONS 211025Z 23007KT M01/M05 A299 RMK A01 T10081050  RH  074%=      5-min Rain = 0
KONS 211030Z 23007KT M01/M05 A299 RMK A01 T10091051  RH  074%=      5-min Rain = 0
KONS 211035Z 23007KT M01/M05 A299 RMK A01 T10111052  RH  075%=      5-min Rain = 0
KONS 211040Z 23008KT M02/M05 A299 RMK A01 T10151054  RH  076%=      5-min Rain = 0
KONS 211045Z 23008KT M02/M05 A299 RMK A01 T10161053  RH  077%=      5-min Rain = 0
KONS 211050Z 23008KT M02/M05 A2989 RMK A01 T10161053  RH  076%=      5-min Rain = 0
KONS 211055Z 23009KT M02/M05 A2989 RMK A01 T10151053  RH  076%=      5-min Rain = 0
KONS 211100Z 23009KT M02/M05 A2989 RMK A01 T10151054  RH  076%=      5-min Rain = 0
KONS 211105Z 22011KT M01/M05 A2989 RMK A01 T10121054  RH  074%=      5-min Rain = 0
KONS 211110Z 23013KT 00/M06 A2989 RMK A01 T00011055  RH  066%=      5-min Rain = 0
KONS 211115Z 22013KT 01/M06 A2988 RMK A01 T00101058  RH  061%=      5-min Rain = 0
KONS 211120Z 22012KT 01/M06 A2988 RMK A01 T00141059  RH  059%=      5-min Rain = 0
KONS 211125Z 22011KT 01/M06 A2987 RMK A01 T00131060  RH  059%=      5-min Rain = 0
KONS 211130Z 22010KT 01/M06 A2987 RMK A01 T00111060  RH  060%=      5-min Rain = 0
KONS 211135Z 22010KT 01/M06 A2987 RMK A01 T00101061  RH  060%=      5-min Rain = 0
KONS 211140Z 22011KT 01/M06 A2988 RMK A01 T00081061  RH  060%=      5-min Rain = 0
KONS 211145Z 22010KT 00/M06 A2988 RMK A01 T00041060  RH  062%=      5-min Rain = 0
KONS 211150Z 22012KT 00/M06 A2988 RMK A01 T00041059  RH  063%=      5-min Rain = 0
KONS 211155Z 22013KT 01/M06 A2988 RMK A01 T00091057  RH  062%=      5-min Rain = 0
KONS 211200Z 22012KT 01/M06 A2988 RMK A01 T00131057  RH  060%=      5-min Rain = 0
KONS 211205Z 22012KT 01/M06 A2987 RMK A01 T00131058  RH  060%=      5-min Rain = 0
KONS 211210Z 22012KT 01/M06 A2987 RMK A01 T00121058  RH  061%=      5-min Rain = 0
KONS 211215Z 23012KT 01/M06 A2987 RMK A01 T00111058  RH  061%=      5-min Rain = 0
KONS 211220Z 23010KT 01/M06 A2987 RMK A01 T00081058  RH  062%=      5-min Rain = 0
KONS 211225Z 22010KT 01/M06 A2987 RMK A01 T00061058  RH  063%=      5-min Rain = 0
KONS 211230Z 21011KT 01/M06 A2987 RMK A01 T00061058  RH  063%=      5-min Rain = 0
KONS 211235Z 21011KT 01/M06 A2987 RMK A01 T00061058  RH  063%=      5-min Rain = 0
KONS 211240Z 21012KT 01/M06 A2986 RMK A01 T00081058  RH  062%=      5-min Rain = 0
KONS 211245Z 21012KT 01/M06 A2986 RMK A01 T00081058  RH  062%=      5-min Rain = 0
KONS 211250Z 20012KT 01/M06 A2986 RMK A01 T00071058  RH  063%=      5-min Rain = 0
KONS 211255Z 20012KT 00/M06 A2986 RMK A01 T00031057  RH  065%=      5-min Rain = 0
KONS 211300Z 20011KT 00/M06 A2986 RMK A01 T00011056  RH  066%=      5-min Rain = 0
KONS 211305Z 20011KT 00/M06 A2986 RMK A01 T00011055  RH  067%=      5-min Rain = 0
KONS 211310Z 20010KT 00/M05 A2986 RMK A01 T00011054  RH  067%=      5-min Rain = 0
KONS 211315Z 21010KT 00/M05 A2986 RMK A01 T00021054  RH  067%=      5-min Rain = 0
KONS 211320Z 21011KT 01/M06 A2986 RMK A01 T00051055  RH  065%=      5-min Rain = 0
KONS 211325Z 20011KT 01/M05 A2986 RMK A01 T00081054  RH  064%=      5-min Rain = 0
KONS 211330Z 20011KT 01/M05 A2986 RMK A01 T00091053  RH  064%=      5-min Rain = 0
KONS 211335Z 20012KT 01/M05 A2986 RMK A01 T00101052  RH  064%=      5-min Rain = 0
KONS 211340Z 20013KT 01/M05 A2987 RMK A01 T00121052  RH  063%=      5-min Rain = 0
KONS 211345Z 20013KT 01/M05 A2987 RMK A01 T00141051  RH  062%=      5-min Rain = 0
KONS 211350Z 20013KT 02/M05 A2987 RMK A01 T00161050  RH  062%=      5-min Rain = 0
KONS 211355Z 20013KT 02/M05 A2986 RMK A01 T00151049  RH  063%=      5-min Rain = 0
KONS 211400Z 20013KT 02/M05 A2986 RMK A01 T00151048  RH  064%=      5-min Rain = 0
KONS 211405Z 20013KT 01/M05 A2986 RMK A01 T00141047  RH  065%=      5-min Rain = 0
KONS 211410Z 20014KT 01/M05 A2986 RMK A01 T00141046  RH  065%=      5-min Rain = 0
KONS 211415Z 20013KT 02/M05 A2985 RMK A01 T00151046  RH  065%=      5-min Rain = 0
KONS 211420Z 20013KT 02/M05 A2985 RMK A01 T00171046  RH  064%=      5-min Rain = 0
KONS 211425Z 20012KT 02/M05 A2985 RMK A01 T00171045  RH  064%=      5-min Rain = 0
KONS 211430Z 20012KT 02/M04 A2984 RMK A01 T00181044  RH  064%=      5-min Rain = 0
KONS 211435Z 20014KT 02/M04 A2984 RMK A01 T00211044  RH  063%=      5-min Rain = 0
KONS 211440Z 20015KT 03/M04 A2984 RMK A01 T00271043  RH  061%=      5-min Rain = 0
KONS 211445Z 21014KT 03/M04 A2984 RMK A01 T00311042  RH  059%=      5-min Rain = 0
KONS 211450Z 21014KT 03/M04 A2985 RMK A01 T00341041  RH  059%=      5-min Rain = 0
KONS 211455Z 21014KT 04/M04 A2985 RMK A01 T00371039  RH  058%=      5-min Rain = 0
KONS 211500Z 21014KT 04/M04 A2985 RMK A01 T00391037  RH  058%=      5-min Rain = 0
KONS 211505Z 20013KT 04/M03 A2984 RMK A01 T00431034  RH  058%=      5-min Rain = 0
KONS 211510Z 20013KT 05/M03 A2984 RMK A01 T00461032  RH  058%=      5-min Rain = 0
KONS 211515Z 20014KT 05/M03 A2984 RMK A01 T00481032  RH  057%=      5-min Rain = 0
KONS 211520Z 20012KT 05/M03 A2984 RMK A01 T00501030  RH  057%=      5-min Rain = 0
KONS 211525Z 20013KT 05/M03 A2984 RMK A01 T00541029  RH  056%=      5-min Rain = 0
KONS 211530Z 20014KT 06/M03 A2984 RMK A01 T00561030  RH  054%=      5-min Rain = 0
KONS 211535Z 20012KT 06/M03 A2984 RMK A01 T00591029  RH  054%=      5-min Rain = 0
KONS 211540Z 20011KT 06/M03 A2984 RMK A01 T00621028  RH  053%=      5-min Rain = 0
KONS 211545Z 20012KT 07/M03 A2983 RMK A01 T00661028  RH  052%=      5-min Rain = 0
KONS 211550Z 20013G20KT 07/M03 A2983 RMK A01 T00721034  RH  047%=      5-min Rain = 0
KONS 211555Z 21013KT 08/M03 A2984 RMK A01 T00781034  RH  045%=      5-min Rain = 0
KONS 211600Z 21013KT 08/M04 A2983 RMK A01 T00841035  RH  043%=      5-min Rain = 0
KONS 211605Z 22014G19KT 09/M04 A2983 RMK A01 T00901037  RH  041%=      5-min Rain = 0
KONS 211610Z 22015KT 10/M04 A2983 RMK A01 T00951037  RH  040%=      5-min Rain = 0
KONS 211615Z 22014KT 10/M04 A2983 RMK A01 T00981036  RH  039%=      5-min Rain = 0
KONS 211620Z 21014KT 10/M03 A2982 RMK A01 T01011032  RH  040%=      5-min Rain = 0
KONS 211625Z 21015KT 10/M03 A2982 RMK A01 T01031034  RH  039%=      5-min Rain = 0
KONS 211630Z 21016KT 11/M04 A2982 RMK A01 T01111037  RH  036%=      5-min Rain = 0
KONS 211635Z 21015KT 12/M04 A2982 RMK A01 T01181038  RH  034%=      5-min Rain = 0
KONS 211640Z 21015KT 13/M04 A2983 RMK A01 T01261039  RH  032%=      5-min Rain = 0
KONS 211645Z 21017G22KT 14/M04 A2982 RMK A01 T01351040  RH  030%=      5-min Rain = 0
KONS 211650Z 21018G25KT 14/M04 A2982 RMK A01 T01411044  RH  028%=      5-min Rain = 0
KONS 211655Z 22019G24KT 15/M05 A2982 RMK A01 T01481046  RH  026%=      5-min Rain = 0
KONS 211700Z 22020G27KT 15/M05 A2982 RMK A01 T01531048  RH  025%=      5-min Rain = 0
KONS 211705Z 23022G29KT 15/M05 A2981 RMK A01 T01541052  RH  024%=      5-min Rain = 0
KONS 211710Z 23020G26KT 15/M05 A2981 RMK A01 T01541051  RH  024%=      5-min Rain = 0
KONS 211715Z 23021G26KT 16/M05 A2981 RMK A01 T01571050  RH  024%=      5-min Rain = 0
KONS 211720Z 22019KT 16/M05 A2981 RMK A01 T01581050  RH  024%=      5-min Rain = 0
KONS 211725Z 22018G23KT 16/M05 A2981 RMK A01 T01581046  RH  024%=      5-min Rain = 0
KONS 211730Z 22015G21KT 16/M04 A2981 RMK A01 T01581044  RH  025%=      5-min Rain = 0
KONS 211735Z 21016KT 16/M04 A298 RMK A01 T01641040  RH  025%=      5-min Rain = 0
KONS 211740Z 22018KT 17/M05 A298 RMK A01 T01691045  RH  023%=      5-min Rain = 0
KONS 211745Z 22020KT 17/M05 A298 RMK A01 T01711052  RH  022%=      5-min Rain = 0
KONS 211750Z 22019G25KT 18/M05 A2979 RMK A01 T01771050  RH  021%=      5-min Rain = 0
KONS 211755Z 22018KT 18/M05 A2979 RMK A01 T01831051  RH  020%=      5-min Rain = 0
KONS 211800Z 22017G23KT 19/M05 A2979 RMK A01 T01881051  RH  019%=      5-min Rain = 0
KONS 211805Z 22018G24KT 19/M05 A2979 RMK A01 T01881052  RH  019%=      5-min Rain = 0
KONS 211810Z 23018G24KT 19/M05 A2978 RMK A01 T01911050  RH  019%=      5-min Rain = 0
KONS 211815Z 23024G30KT 20/M06 A2978 RMK A01 T01961057  RH  018%=      5-min Rain = 0
KONS 211820Z 24024G31KT 20/M06 A2978 RMK A01 T01991059  RH  017%=      5-min Rain = 0
KONS 211825Z 24023G30KT 20/M06 A2977 RMK A01 T02021059  RH  017%=      5-min Rain = 0
KONS 211830Z 23023G29KT 21/M06 A2977 RMK A01 T02061056  RH  017%=      5-min Rain = 0
KONS 211835Z 23023G29KT 21/M06 A2977 RMK A01 T02071057  RH  017%=      5-min Rain = 0
KONS 211840Z 22023G29KT 21/M06 A2976 RMK A01 T02051057  RH  017%=      5-min Rain = 0
KONS 211845Z 22024KT 20/M06 A2976 RMK A01 T02021060  RH  017%=      5-min Rain = 0
KONS 211850Z 23023G29KT 20/M06 A2975 RMK A01 T02011059  RH  017%=      5-min Rain = 0
KONS 211855Z 22024G31KT 20/M06 A2974 RMK A01 T02021058  RH  017%=      5-min Rain = 0
KONS 211900Z 23024G30KT 20/M06 A2974 RMK A01 T02041059  RH  017%=      5-min Rain = 0
KONS 211905Z 22023G29KT 20/M06 A2974 RMK A01 T02041057  RH  017%=      5-min Rain = 0
KONS 211910Z 23023G30KT 21/M06 A2973 RMK A01 T02081057  RH  016%=      5-min Rain = 0
KONS 211915Z 23024G30KT 21/M06 A2973 RMK A01 T02051063  RH  016%=      5-min Rain = 0
KONS 211920Z 23021G28KT 21/M06 A2973 RMK A01 T02061059  RH  016%=      5-min Rain = 0
KONS 211925Z 22021G27KT 21/M06 A2972 RMK A01 T02101058  RH  016%=      5-min Rain = 0
KONS 211930Z 23024G31KT 21/M06 A2972 RMK A01 T02131063  RH  015%=      5-min Rain = 0
KONS 211935Z 22024G29KT 22/M06 A2971 RMK A01 T02161064  RH  015%=      5-min Rain = 0
KONS 211940Z 23025G30KT 22/M07 A2971 RMK A01 T02181065  RH  015%=      5-min Rain = 0
KONS 211945Z 22025G30KT 22/M07 A297 RMK A01 T02171066  RH  015%=      5-min Rain = 0
KONS 211950Z 22023G31KT 22/M06 A297 RMK A01 T02171062  RH  015%=      5-min Rain = 0
KONS 211955Z 22020G26KT 22/M06 A297 RMK A01 T02221057  RH  015%=      5-min Rain = 0
KONS 212000Z 22022G27KT 22/M06 A2969 RMK A01 T02181055  RH  016%=      5-min Rain = 0
KONS 212005Z 21024G29KT 22/M06 A2969 RMK A01 T02201057  RH  015%=      5-min Rain = 0
KONS 212010Z 22024G29KT 22/M06 A2968 RMK A01 T02231059  RH  015%=      5-min Rain = 0
KONS 212015Z 22026G31KT 22/M06 A2967 RMK A01 T02231063  RH  014%=      5-min Rain = 0
KONS 212020Z 22024G31KT 22/M06 A2967 RMK A01 T02221063  RH  014%=      5-min Rain = 0
KONS 212025Z 22026G33KT 22/M07 A2967 RMK A01 T02221065  RH  014%=      5-min Rain = 0
KONS 212030Z 22024G31KT 23/M06 A2966 RMK A01 T02271060  RH  014%=      5-min Rain = 0
KONS 212035Z 22025G30KT 23/M06 A2966 RMK A01 T02281062  RH  014%=      5-min Rain = 0
KONS 212040Z 21028G34KT 23/M06 A2966 RMK A01 T02261064  RH  014%=      5-min Rain = 0
KONS 212045Z 21028G33KT 23/M06 A2966 RMK A01 T02271064  RH  014%=      5-min Rain = 0
KONS 212050Z 20028G35KT 23/M07 A2965 RMK A01 T02261067  RH  014%=      5-min Rain = 0
KONS 212055Z 20026G33KT 22/M07 A2966 RMK A01 T02241067  RH  014%=      5-min Rain = 0
KONS 212100Z 20026G32KT 23/M07 A2965 RMK A01 T02251069  RH  014%=      5-min Rain = 0
KONS 212105Z 21024G31KT 23/M07 A2965 RMK A01 T02261069  RH  013%=      5-min Rain = 0
KONS 212110Z 21027KT 23/M07 A2965 RMK A01 T02271072  RH  013%=      5-min Rain = 0
KONS 212115Z 21023G29KT 23/M07 A2965 RMK A01 T02271069  RH  013%=      5-min Rain = 0
KONS 212120Z 21023G29KT 22/M07 A2965 RMK A01 T02241071  RH  013%=      5-min Rain = 0
KONS 212125Z 22025G30KT 23/M07 A2965 RMK A01 T02251073  RH  013%=      5-min Rain = 0
KONS 212130Z 21023G29KT 23/M07 A2965 RMK A01 T02251070  RH  013%=      5-min Rain = 0
KONS 212135Z 21026G33KT 22/M08 A2965 RMK A01 T02231075  RH  013%=      5-min Rain = 0
KONS 212140Z 21024G32KT 22/M07 A2964 RMK A01 T02211072  RH  014%=      5-min Rain = 0
KONS 212145Z 20024G31KT 22/M07 A2965 RMK A01 T02191071  RH  014%=      5-min Rain = 0
KONS 212150Z 21025KT 22/M07 A2964 RMK A01 T02201073  RH  014%=      5-min Rain = 0
KONS 212155Z 21022G31KT 22/M07 A2964 RMK A01 T02191074  RH  014%=      5-min Rain = 0
KONS 212200Z 21024G31KT 22/M08 A2964 RMK A01 T02161076  RH  014%=      5-min Rain = 0
KONS 212205Z 21021G28KT 21/M07 A2964 RMK A01 T02141074  RH  014%=      5-min Rain = 0
KONS 212210Z 21026G31KT 21/M08 A2963 RMK A01 T02141077  RH  014%=      5-min Rain = 0
KONS 212215Z 21026G31KT 21/M08 A2963 RMK A01 T02131076  RH  014%=      5-min Rain = 0
KONS 212220Z 21024G30KT 21/M08 A2964 RMK A01 T02131077  RH  014%=      5-min Rain = 0
KONS 212225Z 21022G27KT 21/M08 A2964 RMK A01 T02131076  RH  014%=      5-min Rain = 0
KONS 212230Z 21021G27KT 21/M08 A2964 RMK A01 T02121075  RH  014%=      5-min Rain = 0
KONS 212235Z 21020G25KT 21/M08 A2964 RMK A01 T02111076  RH  014%=      5-min Rain = 0
KONS 212240Z 21021G26KT 21/M08 A2963 RMK A01 T02111075  RH  014%=      5-min Rain = 0
KONS 212245Z 21023KT 21/M08 A2964 RMK A01 T02091077  RH  014%=      5-min Rain = 0
KONS 212250Z 21023G30KT 21/M08 A2963 RMK A01 T02081079  RH  014%=      5-min Rain = 0
KONS 212255Z 21023G31KT 21/M08 A2963 RMK A01 T02081079  RH  014%=      5-min Rain = 0
KONS 212300Z 22022G28KT 21/M08 A2964 RMK A01 T02071079  RH  014%=      5-min Rain = 0
KONS 212305Z 21019G25KT 20/M08 A2964 RMK A01 T02041078  RH  014%=      5-min Rain = 0
KONS 212310Z 21020G27KT 20/M08 A2964 RMK A01 T02031079  RH  014%=      5-min Rain = 0
KONS 212315Z 22023G30KT 20/M08 A2963 RMK A01 T02031082  RH  014%=      5-min Rain = 0
KONS 212320Z 22026KT 20/M08 A2963 RMK A01 T02031083  RH  014%=      5-min Rain = 0
KONS 212325Z 21021KT 20/M08 A2963 RMK A01 T02011083  RH  014%=      5-min Rain = 0
KONS 212330Z 21020G25KT 20/M08 A2963 RMK A01 T02001083  RH  014%=      5-min Rain = 0
KONS 212335Z 21021G26KT 20/M08 A2963 RMK A01 T01981084  RH  014%=      5-min Rain = 0
KONS 212340Z 21021KT 20/M09 A2963 RMK A01 T01981085  RH  014%=      5-min Rain = 0
KONS 212345Z 21018G24KT 20/M09 A2963 RMK A01 T01971085  RH  014%=      5-min Rain = 0
KONS 212350Z 21016KT 19/M08 A2963 RMK A01 T01931082  RH  015%=      5-min Rain = 0
KONS 212355Z 21017G23KT 19/M08 A2962 RMK A01 T01891080  RH  016%=      5-min Rain = 0
KONS 220000Z 20021KT 19/M08 A2962 RMK A01 T01901084  RH  015%=      5-min Rain = 0
KONS 220005Z 21020G25KT 19/M09 A2962 RMK A01 T01901085  RH  015%=      5-min Rain = 0
KONS 220010Z 21017KT 19/M08 A2962 RMK A01 T01881083  RH  015%=      5-min Rain = 0
KONS 220015Z 20017G22KT 19/M08 A2962 RMK A01 T01861082  RH  016%=      5-min Rain = 0
KONS 220020Z 20017KT 19/M08 A2962 RMK A01 T01881084  RH  015%=      5-min Rain = 0
KONS 220025Z 20018KT 19/M08 A2962 RMK A01 T01861081  RH  016%=      5-min Rain = 0
KONS 220030Z 20018G23KT 19/M08 A2962 RMK A01 T01851080  RH  016%=      5-min Rain = 0
KONS 220035Z 20018KT 18/M08 A2962 RMK A01 T01831079  RH  016%=      5-min Rain = 0
KONS 220040Z 20018KT 18/M08 A2962 RMK A01 T01801078  RH  017%=      5-min Rain = 0
KONS 220045Z 20018KT 18/M08 A2962 RMK A01 T01781077  RH  017%=      5-min Rain = 0
KONS 220050Z 19017KT 18/M08 A2963 RMK A01 T01751076  RH  017%=      5-min Rain = 0
KONS 220055Z 20015KT 17/M08 A2963 RMK A01 T01731075  RH  018%=      5-min Rain = 0
KONS 220100Z 20014KT 17/M08 A2963 RMK A01 T01701075  RH  018%=      5-min Rain = 0
KONS 220105Z 20012KT 17/M07 A2963 RMK A01 T01671073  RH  019%=      5-min Rain = 0
KONS 220110Z 20011KT 16/M07 A2963 RMK A01 T01641073  RH  019%=      5-min Rain = 0
KONS 220115Z 20013KT 16/M07 A2963 RMK A01 T01641073  RH  019%=      5-min Rain = 0
KONS 220120Z 20014KT 17/M07 A2963 RMK A01 T01661074  RH  019%=      5-min Rain = 0
KONS 220125Z 20015G21KT 17/M08 A2963 RMK A01 T01651075  RH  019%=      5-min Rain = 0
KONS 220130Z 20016G21KT 17/M08 A2963 RMK A01 T01651075  RH  019%=      5-min Rain = 0
KONS 220135Z 20019KT 17/M08 A2963 RMK A01 T01671078  RH  018%=      5-min Rain = 0
KONS 220140Z 20019KT 17/M08 A2963 RMK A01 T01671078  RH  018%=      5-min Rain = 0
KONS 220145Z 20019KT 17/M08 A2963 RMK A01 T01651078  RH  018%=      5-min Rain = 0
KONS 220150Z 20018G23KT 17/M08 A2963 RMK A01 T01651079  RH  018%=      5-min Rain = 0
KONS 220155Z 20017KT 17/M08 A2963 RMK A01 T01651078  RH  018%=      5-min Rain = 0
KONS 220200Z 20016KT 16/M08 A2963 RMK A01 T01631076  RH  019%=      5-min Rain = 0
KONS 220205Z 19015KT 16/M08 A2963 RMK A01 T01601075  RH  019%=      5-min Rain = 0
KONS 220210Z 19014KT 16/M07 A2964 RMK A01 T01571074  RH  020%=      5-min Rain = 0
KONS 220215Z 19015KT 15/M07 A2964 RMK A01 T01541073  RH  021%=      5-min Rain = 0
KONS 220220Z 19015KT 15/M07 A2964 RMK A01 T01521072  RH  021%=      5-min Rain = 0
KONS 220225Z 18012KT 15/M07 A2964 RMK A01 T01491069  RH  022%=      5-min Rain = 0
KONS 220230Z 18012KT 15/M07 A2964 RMK A01 T01461069  RH  022%=      5-min Rain = 0
KONS 220235Z 18011KT 14/M07 A2964 RMK A01 T01441069  RH  023%=      5-min Rain = 0
KONS 220240Z 16011KT 14/M07 A2964 RMK A01 T01411070  RH  023%=      5-min Rain = 0
KONS 220245Z 16011KT 14/M06 A2964 RMK A01 T01371064  RH  025%=      5-min Rain = 0
KONS 220250Z 16008KT 13/M06 A2964 RMK A01 T01311061  RH  026%=      5-min Rain = 0
KONS 220255Z 16009KT 13/M06 A2964 RMK A01 T01261058  RH  027%=      5-min Rain = 0
KONS 220300Z 17012KT 12/M06 A2964 RMK A01 T01241056  RH  028%=      5-min Rain = 0
KONS 220305Z 18014KT 13/M05 A2964 RMK A01 T01281054  RH  028%=      5-min Rain = 0
KONS 220310Z 18014KT 13/M05 A2964 RMK A01 T01311048  RH  029%=      5-min Rain = 0
KONS 220315Z 18016KT 13/M04 A2964 RMK A01 T01331041  RH  030%=      5-min Rain = 0
KONS 220320Z 18016KT 14/M04 A2964 RMK A01 T01351040  RH  030%=      5-min Rain = 0
KONS 220325Z 18015KT 14/M04 A2964 RMK A01 T01351038  RH  030%=      5-min Rain = 0
KONS 220330Z 18017KT 14/M03 A2964 RMK A01 T01361034  RH  031%=      5-min Rain = 0
KONS 220335Z 18017G22KT 14/M02 A2964 RMK A01 T01371023  RH  033%=      5-min Rain = 0
KONS 220340Z 17015KT 13/M02 A2964 RMK A01 T01341021  RH  034%=      5-min Rain = 0
KONS 220345Z 17013KT 13/M02 A2964 RMK A01 T01301020  RH  036%=      5-min Rain = 0
KONS 220350Z 17014G19KT 13/M02 A2964 RMK A01 T01251017  RH  038%=      5-min Rain = 0
KONS 220355Z 18016KT 12/M01 A2963 RMK A01 T01241012  RH  039%=      5-min Rain = 0
KONS 220400Z 17017KT 12/M01 A2963 RMK A01 T01211009  RH  041%=      5-min Rain = 0
KONS 220405Z 18018KT 12/M01 A2963 RMK A01 T01211008  RH  041%=      5-min Rain = 0
KONS 220410Z 18018KT 12/M01 A2963 RMK A01 T01201007  RH  042%=      5-min Rain = 0
KONS 220415Z 18018G24KT 12/M01 A2963 RMK A01 T01181007  RH  042%=      5-min Rain = 0
KONS 220420Z 18018G23KT 12/M01 A2963 RMK A01 T01181006  RH  043%=      5-min Rain = 0
KONS 220425Z 18018G24KT 12/M01 A2963 RMK A01 T01171005  RH  043%=      5-min Rain = 0
KONS 220430Z 18019G24KT 12/M01 A2963 RMK A01 T01171005  RH  043%=      5-min Rain = 0
KONS 220435Z 18019KT 12/M01 A2963 RMK A01 T01161005  RH  044%=      5-min Rain = 0
KONS 220440Z 18019G25KT 12/M00 A2962 RMK A01 T01161004  RH  044%=      5-min Rain = 0
KONS 220445Z 18019G24KT 11/M00 A2962 RMK A01 T01141004  RH  045%=      5-min Rain = 0
KONS 220450Z 18022G28KT 12/M00 A2962 RMK A01 T01161003  RH  044%=      5-min Rain = 0
KONS 220455Z 18023G29KT 12/M00 A2962 RMK A01 T01161003  RH  044%=      5-min Rain = 0
KONS 220500Z 18023G29KT 12/M00 A2961 RMK A01 T01151003  RH  045%=      5-min Rain = 0
KONS 220505Z 18023G29KT 11/M00 A2961 RMK A01 T01141003  RH  045%=      5-min Rain = 0
KONS 220510Z 18024G31KT 11/M00 A2961 RMK A01 T01121003  RH  045%=      5-min Rain = 0
KONS 220515Z 18025G30KT 11/M00 A2961 RMK A01 T01121003  RH  045%=      5-min Rain = 0
KONS 220520Z 18024G32KT 11/M00 A2961 RMK A01 T01111003  RH  046%=      5-min Rain = 0
KONS 220525Z 18023G29KT 11/M00 A2962 RMK A01 T01091003  RH  046%=      5-min Rain = 0
KONS 220530Z 18024G30KT 11/M00 A2962 RMK A01 T01081003  RH  047%=      5-min Rain = 0
KONS 220535Z 18022G28KT 11/M00 A2962 RMK A01 T01071002  RH  047%=      5-min Rain = 0
KONS 220540Z 18021G27KT 11/M00 A2962 RMK A01 T01051002  RH  048%=      5-min Rain = 0
KONS 220545Z 19022G27KT 10/M00 A2963 RMK A01 T01041002  RH  048%=      5-min Rain = 0
KONS 220550Z 19020G25KT 10/M00 A2963 RMK A01 T01041002  RH  049%=      5-min Rain = 0
KONS 220555Z 19019KT 10/M00 A2963 RMK A01 T01011002  RH  049%=      5-min Rain = 0

Page generated in 0.0129 seconds.